»·PEaware :: WAT169 KLAS-KSNA

WAT169 :: KLAS-KSNA

FLIGHT INFORMATION

Flight Status: Arrived
Operator:
Walker Air Transport
More flights by this operator :: More flights under this callsign
Pilot: Marty P. (27464)
Aircraft: BEECH AIRCRAFT SUPER KING AIR 350
(B350)
More flights by this aircraft type
Origin: KLAS McCarran Intl
United States
Destination: KSNA John Wayne-Orange Co
United States
More flights between these airports :: More routes between these airports
Route: LAS V538 GFS HEC KAYOH7
File this flight plan on PilotEdge
Remarks:
Altitude:
(Current/Filed)
28,000ft
Speed:
(Current/Filed)
300kts
Departed: 21-Feb-21 10:22 AM
Arrived: 21-Feb-21 11:17 AM
Distance/Time
Traveled:
197nm/0:54
Distance/Time
To Go:
Arrived

Flight Plot

Page will automatically refresh every two minutes.

Flight plan parsing failed; only flown route is shown


Map Options




Map Legend


Flown Route
Filed Route
Departure Airport
Arrival Airport
Navaid (VOR, NDB)
Fix

Horizontal Profiles

Position Reports

Time Latitude Longitude Heading Altitude Ground
Speed
21-Feb-21 09:58 36.080698 -115.170771 89 2170ft 0kts
21-Feb-21 09:59 36.080698 -115.170771 89 2170ft 0kts
21-Feb-21 10:00 36.080698 -115.170771 89 2170ft 0kts
21-Feb-21 10:01 36.080698 -115.170771 89 2170ft 0kts
21-Feb-21 10:02 36.080698 -115.170771 89 2170ft 0kts
21-Feb-21 10:03 36.080698 -115.170771 89 2170ft 0kts
21-Feb-21 10:04 36.080698 -115.170771 89 2170ft 0kts
21-Feb-21 10:05 36.080698 -115.170771 89 2170ft 0kts
21-Feb-21 10:06 36.080698 -115.170771 89 2170ft 0kts
21-Feb-21 10:07 36.080698 -115.170771 89 2170ft 0kts
21-Feb-21 10:09 36.080698 -115.170771 89 2170ft 0kts
21-Feb-21 10:10 36.080698 -115.170771 89 2170ft 0kts
21-Feb-21 10:11 36.080698 -115.170771 89 2170ft 0kts
21-Feb-21 10:12 36.080698 -115.170771 89 2170ft 0kts
21-Feb-21 10:13 36.080698 -115.170771 89 2170ft 0kts
21-Feb-21 10:14 36.080698 -115.170771 89 2170ft 0kts
21-Feb-21 10:15 36.080698 -115.170771 89 2170ft 0kts
21-Feb-21 10:16 36.080698 -115.170771 89 2170ft 0kts
21-Feb-21 10:17 36.079813 -115.170202 204 2171ft 12kts
21-Feb-21 10:18 36.077479 -115.171233 179 2178ft 8kts
21-Feb-21 10:19 36.077401 -115.171231 178 2178ft 0kts
21-Feb-21 10:20 36.077401 -115.171231 178 2178ft 0kts
21-Feb-21 10:21 36.076517 -115.171192 168 2180ft 11kts
21-Feb-21 10:22 36.085056 -115.164888 23 2295ft 129kts
21-Feb-21 10:23 36.103313 -115.188676 251 5394ft 141kts
21-Feb-21 10:24 36.088482 -115.241872 251 7549ft 185kts
21-Feb-21 10:25 36.071301 -115.303345 251 9437ft 191kts
21-Feb-21 10:26 36.051051 -115.369759 251 10001ft 218kts
21-Feb-21 10:27 36.029535 -115.440220 251 10000ft 219kts
21-Feb-21 10:28 35.984578 -115.473471 161 10023ft 222kts
21-Feb-21 10:29 35.924737 -115.449579 161 10031ft 241kts
21-Feb-21 10:29 35.866449 -115.426120 161 10018ft 281kts
21-Feb-21 10:31 35.777178 -115.390298 161 10007ft 296kts
21-Feb-21 10:31 35.712134 -115.364136 161 10580ft 276kts
21-Feb-21 10:33 35.640651 -115.334630 161 13589ft 217kts
21-Feb-21 10:34 35.583110 -115.310286 161 15544ft 221kts
21-Feb-21 10:34 35.534350 -115.307273 218 17126ft 211kts
21-Feb-21 10:36 35.492432 -115.368255 242 19328ft 203kts
21-Feb-21 10:36 35.463793 -115.415134 241 20816ft 208kts
21-Feb-21 10:37 35.428343 -115.471887 240 22257ft 212kts
21-Feb-21 10:38 35.392144 -115.529442 240 23705ft 216kts
21-Feb-21 10:39 35.355172 -115.587929 240 25323ft 216kts
21-Feb-21 10:40 35.317758 -115.647288 241 26821ft 222kts
21-Feb-21 10:41 35.279809 -115.707333 240 28182ft 225kts
21-Feb-21 10:42 35.238946 -115.772545 239 28506ft 265kts
21-Feb-21 10:43 35.191411 -115.847769 238 28498ft 291kts
21-Feb-21 10:44 35.140137 -115.928610 238 28506ft 308kts
21-Feb-21 10:45 35.086365 -116.013114 237 28505ft 320kts
21-Feb-21 10:46 35.031047 -116.099780 237 28503ft 328kts
21-Feb-21 10:47 34.974503 -116.188115 237 28503ft 333kts
21-Feb-21 10:48 34.917141 -116.277492 236 28506ft 336kts
21-Feb-21 10:49 34.859252 -116.367455 236 28488ft 337kts
21-Feb-21 10:50 34.801757 -116.455994 234 27337ft 329kts
21-Feb-21 10:51 34.738114 -116.536278 228 25844ft 332kts
21-Feb-21 10:52 34.673098 -116.616168 228 24471ft 335kts
21-Feb-21 10:53 34.606113 -116.698436 227 24486ft 346kts
21-Feb-21 10:54 34.538485 -116.781313 227 23480ft 344kts
21-Feb-21 10:55 34.483402 -116.848677 227 21472ft 348kts
21-Feb-21 10:56 34.421730 -116.923867 228 19148ft 335kts
21-Feb-21 10:57 34.358313 -117.000944 228 16277ft 320kts
21-Feb-21 10:58 34.296821 -117.075543 228 13375ft 307kts
21-Feb-21 10:59 34.234251 -117.129607 211 12247ft 272kts
21-Feb-21 11:00 34.166730 -117.174918 211 10794ft 284kts
21-Feb-21 11:01 34.097158 -117.223852 211 10039ft 295kts
21-Feb-21 11:02 34.026123 -117.275121 211 8883ft 292kts
21-Feb-21 11:03 33.961680 -117.323205 211 8018ft 249kts
21-Feb-21 11:04 33.903454 -117.366850 211 8045ft 259kts
21-Feb-21 11:05 33.840503 -117.412092 206 8032ft 256kts
21-Feb-21 11:06 33.778538 -117.450157 206 8036ft 245kts
21-Feb-21 11:07 33.718720 -117.486979 206 8032ft 240kts
21-Feb-21 11:08 33.659436 -117.523369 206 8017ft 238kts
21-Feb-21 11:09 33.601796 -117.561200 227 7936ft 240kts
21-Feb-21 11:10 33.600711 -117.638098 282 6496ft 238kts
21-Feb-21 11:11 33.642955 -117.694746 321 5008ft 232kts
21-Feb-21 11:12 33.691293 -117.745549 326 3510ft 229kts
21-Feb-21 11:13 33.738623 -117.792610 292 1963ft 223kts
21-Feb-21 11:14 33.720671 -117.844606 198 1284ft 150kts
21-Feb-21 11:15 33.685817 -117.862438 204 199ft 128kts
21-Feb-21 11:16 33.669617 -117.872094 155 61ft 15kts
21-Feb-21 11:17 33.670971 -117.869005 39 61ft 15kts
21-Feb-21 11:18 33.671588 -117.867371 209 61ft 0kts
21-Feb-21 11:19 33.671588 -117.867371 209 61ft 0kts
21-Feb-21 11:20 33.671588 -117.867371 209 61ft 0kts
21-Feb-21 11:21 33.671588 -117.867371 209 61ft 0kts
21-Feb-21 11:22 33.671588 -117.867371 209 61ft 0kts
21-Feb-21 11:23 33.671588 -117.867371 209 61ft 0kts
21-Feb-21 11:24 33.671588 -117.867371 209 61ft 0kts
21-Feb-21 11:25 33.671588 -117.867371 209 61ft 0kts
21-Feb-21 11:26 33.671588 -117.867371 209 61ft 0kts
21-Feb-21 11:27 33.671588 -117.867371 209 61ft 0kts
21-Feb-21 11:28 33.671588 -117.867371 209 61ft 0kts
21-Feb-21 11:29 33.671588 -117.867371 209 61ft 0kts
21-Feb-21 11:30 33.671588 -117.867371 209 61ft 0kts

Navigation Log

Ident Type
Flight plan parsing failed, navigation log unavailable